createdAt,value
2018-06-27T00:01:10.614Z,100969.14
2018-06-27T00:04:13.552Z,100969.91
2018-06-27T00:07:16.494Z,100969.59
2018-06-27T00:10:19.440Z,100967.41
2018-06-27T00:13:22.389Z,100968.89
2018-06-27T00:16:25.350Z,100965.63
2018-06-27T00:19:28.364Z,100899.58
2018-06-27T00:22:31.210Z,100962.46
2018-06-27T00:25:34.174Z,100969.13
2018-06-27T00:28:37.078Z,100965.20
2018-06-27T00:31:40.004Z,100965.52
2018-06-27T00:34:42.936Z,100964.91
2018-06-27T00:37:45.842Z,100964.39
2018-06-27T00:40:48.801Z,100961.89
2018-06-27T00:43:51.710Z,100956.17
2018-06-27T00:46:54.619Z,100957.05
2018-06-27T00:49:57.540Z,100957.94
2018-06-27T00:53:00.438Z,100959.14
2018-06-27T00:56:03.672Z,100954.36
2018-06-27T00:59:06.636Z,100955.59
2018-06-27T01:02:09.612Z,100955.04
2018-06-27T01:05:12.548Z,100959.56
2018-06-27T01:08:15.481Z,100958.27
2018-06-27T01:11:18.410Z,100961.00
2018-06-27T01:14:21.357Z,100954.49
2018-06-27T01:17:24.272Z,100956.28
2018-06-27T01:20:27.205Z,100953.75
2018-06-27T01:23:30.131Z,100955.54
2018-06-27T01:26:33.073Z,100953.84
2018-06-27T01:29:35.990Z,100954.63
2018-06-27T01:32:38.942Z,100960.70
2018-06-27T01:35:41.876Z,100965.68
2018-06-27T01:38:44.784Z,100969.09
2018-06-27T01:41:47.715Z,100973.19
2018-06-27T01:44:50.664Z,100968.94
2018-06-27T01:47:53.588Z,100971.21
2018-06-27T01:50:56.493Z,100968.91
2018-06-27T01:53:59.426Z,100973.19
2018-06-27T01:57:02.369Z,100974.62
2018-06-27T02:00:06.676Z,100979.44
2018-06-27T02:03:09.620Z,100979.01
2018-06-27T02:06:12.553Z,100981.28
2018-06-27T02:09:17.134Z,100978.66
2018-06-27T02:12:20.040Z,100983.08
2018-06-27T02:15:22.977Z,100979.47
2018-06-27T02:18:25.872Z,100978.84
2018-06-27T02:21:28.805Z,100982.25
2018-06-27T02:24:31.732Z,100980.63
2018-06-27T02:27:34.746Z,100978.48
2018-06-27T02:30:37.662Z,100982.02
2018-06-27T02:33:40.559Z,100978.09
2018-06-27T02:36:43.502Z,100976.63
2018-06-27T02:39:46.473Z,100977.66
2018-06-27T02:42:49.632Z,100977.75
2018-06-27T02:45:53.048Z,100975.52
2018-06-27T02:48:56.004Z,100977.45
2018-06-27T02:51:58.913Z,100975.57
2018-06-27T02:55:01.851Z,100984.56
2018-06-27T02:58:05.126Z,100978.51
2018-06-27T03:01:08.108Z,100977.03
2018-06-27T03:04:11.043Z,100977.05
2018-06-27T03:07:13.982Z,100969.27
2018-06-27T03:10:16.932Z,100966.03
2018-06-27T03:13:19.883Z,100970.09
2018-06-27T03:17:00.805Z,100975.06
2018-06-27T03:20:03.788Z,100968.72
2018-06-27T03:23:06.727Z,100966.91
2018-06-27T03:26:09.912Z,100967.64
2018-06-27T03:29:12.876Z,100966.78
2018-06-27T03:32:15.809Z,100969.42
2018-06-27T03:35:18.718Z,100969.94
2018-06-27T03:38:21.671Z,100973.88
2018-06-27T03:41:24.568Z,100969.64
2018-06-27T03:44:27.534Z,100970.51
2018-06-27T03:47:30.457Z,100970.36
2018-06-27T03:50:33.419Z,100897.20
2018-06-27T03:54:11.770Z,100977.33
2018-06-27T03:57:14.679Z,100986.20
2018-06-27T04:00:17.636Z,100985.84
2018-06-27T04:03:20.507Z,100988.27
2018-06-27T04:06:23.434Z,100989.27
2018-06-27T04:09:27.373Z,100978.90
2018-06-27T04:12:30.329Z,100985.20
2018-06-27T04:15:36.105Z,100987.09
2018-06-27T04:18:39.047Z,100983.89
2018-06-27T04:21:41.977Z,100985.98
2018-06-27T04:24:44.905Z,100993.45
2018-06-27T04:27:47.802Z,100993.28
2018-06-27T04:30:50.751Z,100991.62
2018-06-27T04:33:53.675Z,101001.70
2018-06-27T04:36:56.582Z,100990.63
2018-06-27T04:39:59.473Z,100989.11
2018-06-27T04:43:02.427Z,100985.02
2018-06-27T04:46:05.378Z,100986.29
2018-06-27T04:49:08.309Z,100984.38
2018-06-27T04:52:11.216Z,100995.07
2018-06-27T04:55:14.149Z,100990.73
2018-06-27T04:58:17.086Z,100994.83
2018-06-27T05:01:20.050Z,100994.89
2018-06-27T05:04:22.953Z,100996.74
2018-06-27T05:07:25.999Z,100997.14
2018-06-27T05:10:28.881Z,101008.52
2018-06-27T05:13:31.794Z,101009.03
2018-06-27T05:16:34.732Z,101005.78
2018-06-27T05:19:42.246Z,101005.61
2018-06-27T05:22:45.145Z,101005.69
2018-06-27T05:25:48.080Z,101002.86
2018-06-27T05:28:50.975Z,101008.26
2018-06-27T05:31:53.882Z,101005.30
2018-06-27T05:34:56.746Z,101011.16
2018-06-27T05:37:59.652Z,101014.41
2018-06-27T05:41:02.634Z,101013.50
2018-06-27T05:44:05.593Z,101019.58
2018-06-27T05:47:08.457Z,101015.12
2018-06-27T05:50:11.393Z,101025.52
2018-06-27T05:53:14.305Z,101022.86
2018-06-27T05:56:17.223Z,101024.03
2018-06-27T05:59:20.165Z,101026.95
2018-06-27T06:02:23.124Z,101031.73
2018-06-27T06:05:26.152Z,101028.50
2018-06-27T06:08:29.096Z,101036.97
2018-06-27T06:11:32.075Z,101032.40
2018-06-27T06:14:34.946Z,101027.30
2018-06-27T06:17:37.858Z,101027.66
2018-06-27T06:20:40.762Z,101019.56
2018-06-27T06:23:43.751Z,101025.12
2018-06-27T06:26:46.698Z,101026.72
2018-06-27T06:29:49.628Z,101025.89
2018-06-27T06:32:52.567Z,101028.34
2018-06-27T06:35:55.514Z,101029.98
2018-06-27T06:38:58.453Z,101027.07
2018-06-27T06:42:01.883Z,101026.96
2018-06-27T06:45:04.878Z,101029.95
2018-06-27T06:48:07.802Z,101030.91
2018-06-27T06:51:10.730Z,101032.63
2018-06-27T06:54:13.813Z,101034.74
2018-06-27T06:57:16.703Z,101033.70
2018-06-27T07:00:19.638Z,101030.73
2018-06-27T07:03:22.549Z,101041.88
2018-06-27T07:06:25.493Z,101034.75
2018-06-27T07:09:28.374Z,101030.02
2018-06-27T07:12:31.290Z,101026.36
2018-06-27T07:15:34.289Z,101021.95
2018-06-27T07:18:37.233Z,101023.66
2018-06-27T07:21:40.141Z,101017.10
2018-06-27T07:24:43.065Z,101022.69
2018-06-27T07:27:45.961Z,101021.84
2018-06-27T07:30:49.244Z,101026.30
2018-06-27T07:33:52.192Z,101024.80
2018-06-27T07:36:55.137Z,101026.81
2018-06-27T07:39:58.073Z,101030.45
2018-06-27T07:43:00.996Z,101032.50
2018-06-27T07:46:03.977Z,101035.36
2018-06-27T07:49:06.918Z,101035.30
2018-06-27T07:52:09.879Z,101041.22
2018-06-27T07:55:12.879Z,101040.67
2018-06-27T07:58:15.772Z,101037.25
2018-06-27T08:01:18.687Z,101038.92
2018-06-27T08:04:21.597Z,101035.51
2018-06-27T08:07:24.509Z,101034.57
2018-06-27T08:10:27.425Z,101038.52
2018-06-27T08:13:30.360Z,101037.01
2018-06-27T08:16:33.516Z,101034.03
2018-06-27T08:19:36.489Z,101030.40
2018-06-27T08:22:39.413Z,101020.05
2018-06-27T08:25:48.069Z,101031.11
2018-06-27T08:28:50.979Z,101024.73
2018-06-27T08:31:53.913Z,101023.63
2018-06-27T08:34:56.801Z,101029.36
2018-06-27T08:37:59.733Z,101032.41
2018-06-27T08:41:02.649Z,101031.68
2018-06-27T08:44:05.644Z,101025.48
2018-06-27T08:47:08.566Z,101024.48
2018-06-27T08:50:11.509Z,101019.50
2018-06-27T08:53:14.425Z,101026.59
2018-06-27T08:56:17.330Z,101021.59
2018-06-27T08:59:20.317Z,101027.86
2018-06-27T09:02:23.218Z,101017.77
2018-06-27T09:05:26.178Z,101025.71
2018-06-27T09:08:29.124Z,101020.94
2018-06-27T09:11:32.105Z,101013.37
2018-06-27T09:14:35.037Z,101011.66
2018-06-27T09:17:37.946Z,101008.39
2018-06-27T09:20:40.893Z,101004.09
2018-06-27T09:23:43.804Z,101002.05
2018-06-27T09:26:46.776Z,101000.02
2018-06-27T09:29:49.662Z,100996.24
2018-06-27T09:32:52.590Z,100998.27
2018-06-27T09:35:55.520Z,101000.14
2018-06-27T09:38:58.468Z,100990.60
2018-06-27T09:42:01.474Z,100988.41
2018-06-27T09:45:04.355Z,100980.58
2018-06-27T09:48:07.269Z,100983.42
2018-06-27T09:51:10.216Z,100981.66
2018-06-27T09:54:13.134Z,100977.11
2018-06-27T09:57:16.074Z,100984.27
2018-06-27T10:00:24.751Z,100975.87
2018-06-27T10:03:27.694Z,100979.06
2018-06-27T10:06:30.665Z,100971.07
2018-06-27T10:09:33.593Z,100967.85
2018-06-27T10:12:36.503Z,100964.48
2018-06-27T10:15:39.463Z,100962.86
2018-06-27T10:18:42.346Z,100955.62
2018-06-27T10:21:45.599Z,100954.75
2018-06-27T10:24:48.503Z,100955.78
2018-06-27T10:27:51.441Z,100952.10
2018-06-27T10:30:54.377Z,100959.50
2018-06-27T10:33:57.294Z,100957.98
2018-06-27T10:37:00.221Z,100954.70
2018-06-27T10:40:03.326Z,100948.73
2018-06-27T10:43:06.253Z,100946.11
2018-06-27T10:46:09.187Z,100938.14
2018-06-27T10:49:12.102Z,100946.53
2018-06-27T10:52:15.011Z,100933.55
2018-06-27T10:55:19.666Z,100934.73
2018-06-27T10:58:22.584Z,100933.75
2018-06-27T11:01:25.494Z,100923.20
2018-06-27T11:04:28.429Z,100922.42
2018-06-27T11:07:31.356Z,100920.53
2018-06-27T11:10:34.263Z,100920.81
2018-06-27T11:13:37.223Z,100915.64
2018-06-27T11:16:40.166Z,100908.04
2018-06-27T11:19:43.086Z,100909.47
2018-06-27T11:22:45.985Z,100911.80
2018-06-27T11:25:48.973Z,100898.34
2018-06-27T11:28:51.904Z,100889.09
2018-06-27T11:31:54.783Z,100893.48
2018-06-27T11:34:57.697Z,100891.28
2018-06-27T11:38:00.589Z,100895.95
2018-06-27T11:41:03.542Z,100896.44
2018-06-27T11:44:06.527Z,100890.56
2018-06-27T11:47:09.447Z,100888.33
2018-06-27T11:50:12.397Z,100884.55
2018-06-27T11:53:15.374Z,100876.20
2018-06-27T11:56:18.266Z,100876.50
2018-06-27T11:59:21.241Z,100880.51
2018-06-27T12:02:24.245Z,100880.06
2018-06-27T12:05:27.162Z,100878.12
2018-06-27T12:08:30.174Z,100874.05
2018-06-27T12:11:33.067Z,100866.23
2018-06-27T12:14:36.024Z,100876.22
2018-06-27T12:17:38.974Z,100861.64
2018-06-27T12:20:41.920Z,100868.88
2018-06-27T12:23:44.842Z,100865.55
2018-06-27T12:26:47.796Z,100867.98
2018-06-27T12:29:50.735Z,100861.03
2018-06-27T12:32:53.703Z,100858.34
2018-06-27T12:35:56.651Z,100859.45
2018-06-27T12:38:59.617Z,100848.60
2018-06-27T12:42:02.554Z,100849.36
2018-06-27T12:45:06.085Z,100845.66
2018-06-27T12:48:09.028Z,100844.41
2018-06-27T12:51:12.048Z,100846.16
2018-06-27T12:54:14.978Z,100843.81
2018-06-27T12:57:17.930Z,100852.09
2018-06-27T13:00:20.894Z,100840.64
2018-06-27T13:03:23.842Z,100836.59
2018-06-27T13:06:26.738Z,100848.72
2018-06-27T13:09:29.701Z,100845.39
2018-06-27T13:12:32.653Z,100846.67
2018-06-27T13:15:35.630Z,100841.66
2018-06-27T13:18:38.564Z,100845.53
2018-06-27T13:24:51.237Z,100835.78
2018-06-27T13:27:54.363Z,100832.30
2018-06-27T13:30:57.328Z,100837.71
2018-06-27T13:34:01.110Z,100834.84
2018-06-27T13:37:04.342Z,100836.09
2018-06-27T13:40:07.356Z,100828.59
2018-06-27T13:43:10.461Z,100829.43
2018-06-27T13:46:13.389Z,100830.51
2018-06-27T13:49:16.336Z,100826.25
2018-06-27T13:52:19.282Z,100824.78
2018-06-27T13:55:22.221Z,100824.26
2018-06-27T13:58:25.177Z,100810.08
2018-06-27T14:01:28.125Z,100820.26
2018-06-27T14:04:31.059Z,100817.91
2018-06-27T14:07:40.643Z,100817.45
2018-06-27T14:10:43.598Z,100820.06
2018-06-27T14:13:46.553Z,100823.84
2018-06-27T14:16:49.521Z,100813.73
2018-06-27T14:19:52.493Z,100810.84
2018-06-27T14:22:55.557Z,100807.23
2018-06-27T14:25:58.478Z,100811.59
2018-06-27T14:29:01.436Z,100803.50
2018-06-27T14:32:04.412Z,100803.66
2018-06-27T14:35:07.351Z,100810.17
2018-06-27T14:38:10.299Z,100799.50
2018-06-27T14:41:13.222Z,100796.48
2018-06-27T14:44:16.166Z,100799.22
2018-06-27T14:47:19.098Z,100805.70
2018-06-27T14:50:22.049Z,100799.77
2018-06-27T14:53:24.954Z,100785.49
2018-06-27T14:56:27.912Z,100791.08
2018-06-27T14:59:30.851Z,100790.38
2018-06-27T15:02:33.800Z,100798.62
2018-06-27T15:05:36.734Z,100789.16
2018-06-27T15:08:39.707Z,100783.76
2018-06-27T15:11:42.652Z,100791.78
2018-06-27T15:14:45.594Z,100791.00
2018-06-27T15:17:48.524Z,100794.20
2018-06-27T15:20:51.426Z,100789.77
2018-06-27T15:23:54.358Z,100788.04
2018-06-27T15:26:57.339Z,100790.30
2018-06-27T15:30:00.293Z,100782.66
2018-06-27T15:33:03.229Z,100780.42
2018-06-27T15:36:06.240Z,100782.77
2018-06-27T15:39:10.088Z,100776.73
2018-06-27T15:42:13.026Z,100775.70
2018-06-27T15:45:15.982Z,100770.91
2018-06-27T15:48:19.139Z,100774.25
2018-06-27T15:51:22.085Z,100763.75
2018-06-27T15:54:25.034Z,100767.11
2018-06-27T15:57:27.982Z,100769.14
2018-06-27T16:00:30.922Z,100762.35
2018-06-27T16:03:40.993Z,100766.45
2018-06-27T16:06:43.965Z,100760.48
2018-06-27T16:09:47.914Z,100755.39
2018-06-27T16:12:50.884Z,100753.22
2018-06-27T16:15:53.822Z,100757.17
2018-06-27T16:18:56.781Z,100758.67
2018-06-27T16:21:59.712Z,100755.80
2018-06-27T16:25:03.160Z,100759.70
2018-06-27T16:28:06.480Z,100751.03
2018-06-27T16:31:09.485Z,100748.98
2018-06-27T16:34:12.429Z,100747.89
2018-06-27T16:37:15.385Z,100749.77
2018-06-27T16:40:18.417Z,100742.47
2018-06-27T16:43:21.398Z,100746.24
2018-06-27T16:46:24.306Z,100756.63
2018-06-27T16:49:27.275Z,100756.07
2018-06-27T16:52:30.284Z,100747.41
2018-06-27T16:55:33.351Z,100750.13
2018-06-27T16:58:36.331Z,100745.55
2018-06-27T17:01:39.312Z,100744.09
2018-06-27T17:04:42.302Z,100750.20
2018-06-27T17:07:45.272Z,100746.84
2018-06-27T17:10:48.302Z,100752.02
2018-06-27T17:13:51.289Z,100752.79
2018-06-27T17:16:54.269Z,100754.42
2018-06-27T17:19:57.230Z,100756.09
2018-06-27T17:23:00.194Z,100754.91
2018-06-27T17:26:03.265Z,100728.11
2018-06-27T17:29:06.236Z,100750.50
2018-06-27T17:32:09.182Z,100749.31
2018-06-27T17:35:12.176Z,100753.76
2018-06-27T17:38:15.159Z,100760.57
2018-06-27T17:41:18.196Z,100763.66
2018-06-27T17:44:21.168Z,100760.23
2018-06-27T17:47:24.137Z,100762.25
2018-06-27T17:50:27.263Z,100765.83
2018-06-27T17:53:30.200Z,100767.52
2018-06-27T17:56:33.160Z,100771.97
2018-06-27T17:59:36.099Z,100769.02
2018-06-27T18:02:39.089Z,100768.84
2018-06-27T18:05:42.048Z,100772.52
2018-06-27T18:08:44.990Z,100772.91
2018-06-27T18:11:48.030Z,100771.25
2018-06-27T18:14:50.924Z,100770.57
2018-06-27T18:17:53.839Z,100768.73
2018-06-27T18:20:56.784Z,100761.20
2018-06-27T18:23:59.743Z,100760.09
2018-06-27T18:27:02.733Z,100761.98
2018-06-27T18:30:07.065Z,100764.67
2018-06-27T18:33:10.049Z,100765.41
2018-06-27T18:36:13.022Z,100772.56
2018-06-27T18:39:16.010Z,100771.59
2018-06-27T18:42:18.994Z,100777.62
2018-06-27T18:45:21.996Z,100779.93
2018-06-27T18:48:25.073Z,100776.66
2018-06-27T18:51:28.129Z,100784.09
2018-06-27T18:54:31.140Z,100786.06
2018-06-27T18:57:34.150Z,100786.83
2018-06-27T19:00:37.161Z,100787.08
2018-06-27T19:03:40.157Z,100787.59
2018-06-27T19:06:43.181Z,100786.14
2018-06-27T19:09:46.159Z,100793.28
2018-06-27T19:12:49.152Z,100787.96
2018-06-27T19:15:52.144Z,100788.16
2018-06-27T19:18:55.244Z,100788.55
2018-06-27T19:21:58.281Z,100795.12
2018-06-27T19:25:01.265Z,100793.70
2018-06-27T19:28:04.248Z,100793.70
2018-06-27T19:31:07.214Z,100799.52
2018-06-27T19:34:10.207Z,100806.52
2018-06-27T19:37:13.189Z,100806.37
2018-06-27T19:40:16.177Z,100812.02
2018-06-27T19:43:19.226Z,100808.98
2018-06-27T19:46:22.187Z,100809.43
2018-06-27T19:49:25.201Z,100814.77
2018-06-27T19:52:28.211Z,100814.88
2018-06-27T19:55:31.140Z,100821.98
2018-06-27T19:58:34.081Z,100821.59
2018-06-27T20:01:37.053Z,100822.08
2018-06-27T20:04:39.990Z,100815.52
2018-06-27T20:07:43.017Z,100824.58
2018-06-27T20:10:45.843Z,100829.40
2018-06-27T20:13:48.835Z,100833.14
2018-06-27T20:16:51.831Z,100831.89
2018-06-27T20:19:54.776Z,100836.98
2018-06-27T20:22:57.699Z,100842.17
2018-06-27T20:26:00.634Z,100836.33
2018-06-27T20:29:03.937Z,100842.84
2018-06-27T20:32:06.901Z,100846.54
2018-06-27T20:35:09.853Z,100840.83
2018-06-27T20:38:12.755Z,100838.41
2018-06-27T20:41:15.678Z,100842.88
2018-06-27T20:44:18.578Z,100838.28
2018-06-27T20:47:21.569Z,100841.09
2018-06-27T20:50:24.423Z,100838.06
2018-06-27T20:53:27.353Z,100838.14
2018-06-27T20:56:30.309Z,100837.77
2018-06-27T20:59:33.285Z,100841.89
2018-06-27T21:02:36.229Z,100847.15
2018-06-27T21:05:39.154Z,100848.27
2018-06-27T21:08:42.097Z,100849.63
2018-06-27T21:11:45.069Z,100848.54
2018-06-27T21:14:48.041Z,100851.05
2018-06-27T21:17:50.936Z,100849.75
2018-06-27T21:20:53.871Z,100854.16
2018-06-27T21:23:56.807Z,100858.20
2018-06-27T21:26:59.757Z,100865.48
2018-06-27T21:30:02.793Z,100865.04
2018-06-27T21:33:05.787Z,100866.36
2018-06-27T21:36:08.750Z,100867.84
2018-06-27T21:39:11.683Z,100866.61
2018-06-27T21:42:14.637Z,100864.31
2018-06-27T21:45:17.634Z,100866.23
2018-06-27T21:51:22.956Z,100863.20
2018-06-27T21:54:25.980Z,100873.50
2018-06-27T21:57:28.882Z,100875.34
2018-06-27T22:00:32.553Z,100875.33
2018-06-27T22:03:35.495Z,100874.54
2018-06-27T22:06:38.458Z,100874.92
2018-06-27T22:09:41.384Z,100874.61
2018-06-27T22:12:44.316Z,100878.66
2018-06-27T22:15:47.247Z,100880.16
2018-06-27T22:18:50.209Z,100875.09
2018-06-27T22:21:53.098Z,100881.42
2018-06-27T22:24:56.049Z,100881.42
2018-06-27T22:27:58.981Z,100879.20
2018-06-27T22:31:01.930Z,100884.01
2018-06-27T22:34:04.866Z,100877.52
2018-06-27T22:37:07.803Z,100873.42
2018-06-27T22:40:10.749Z,100880.14
2018-06-27T22:43:13.667Z,100878.70
2018-06-27T22:46:16.584Z,100878.33
2018-06-27T22:49:19.529Z,100874.59
2018-06-27T22:52:22.468Z,100873.95
2018-06-27T22:55:25.391Z,100868.17
2018-06-27T22:58:28.295Z,100864.61
2018-06-27T23:01:31.250Z,100874.78
2018-06-27T23:04:34.154Z,100876.70
2018-06-27T23:07:37.101Z,100876.28
2018-06-27T23:10:40.007Z,100874.25
2018-06-27T23:13:42.901Z,100878.15
2018-06-27T23:16:45.854Z,100879.56
2018-06-27T23:19:48.811Z,100882.31
2018-06-27T23:22:51.769Z,100873.46
2018-06-27T23:25:54.734Z,100877.27
2018-06-27T23:28:57.652Z,100877.95
2018-06-27T23:32:00.558Z,100871.81
2018-06-27T23:35:03.730Z,100869.81
2018-06-27T23:38:06.673Z,100873.31
2018-06-27T23:41:09.655Z,100876.61
2018-06-27T23:44:12.637Z,100870.75
2018-06-27T23:47:15.618Z,100874.37
2018-06-27T23:50:18.567Z,100874.13
2018-06-27T23:53:21.488Z,100870.19
2018-06-27T23:56:24.644Z,100872.55
2018-06-27T23:59:27.608Z,100871.52
